Time;durP1;ratioP1;P1;durP2;ratioP2;P2;SDS_P1;SDS_P2;PMS_P1;PMS_P2;Temp;Humidity;BMP_temperature;BMP_pressure;BME280_temperature;BME280_humidity;BME280_pressure;Samples;Min_cycle;Max_cycle;Signal;HPM_P1;HPM_P2
2021/10/30 00:01:17;;;;;;;14.23;9.47;;;;;;;;;;5126322;28;20199;-80
2021/10/30 00:03:42;;;;;;;15.77;10.43;;;3.70;99.90;;;;;;5126843;28;20206;-80
2021/10/30 00:06:09;;;;;;;17.67;11.67;;;3.70;99.90;;;;;;5125501;28;20546;-81
2021/10/30 00:08:35;;;;;;;14.93;10.40;;;;;;;;;;5124688;28;20553;-81
2021/10/30 00:11:01;;;;;;;15.77;10.20;;;;;;;;;;5126685;28;20457;-80
2021/10/30 00:13:28;;;;;;;15.10;9.30;;;3.80;99.90;;;;;;5125152;28;20910;-80
2021/10/30 00:15:58;;;;;;;14.63;9.77;;;;;;;;;;5125005;28;20931;-80
2021/10/30 00:18:24;;;;;;;12.47;8.83;;;;;;;;;;5124736;28;20414;-81
2021/10/30 00:20:50;;;;;;;13.30;8.97;;;;;;;;;;5124809;28;20406;-80
2021/10/30 00:23:16;;;;;;;15.17;8.40;;;3.90;99.90;;;;;;5125066;28;20414;-81
2021/10/30 00:25:42;;;;;;;13.07;9.70;;;3.80;99.90;;;;;;5124963;28;20187;-80
2021/10/30 00:28:08;;;;;;;15.90;9.47;;;;;;;;;;5125901;28;20172;-80
2021/10/30 00:30:34;;;;;;;12.60;9.13;;;;;;;;;;5125390;28;20191;-80
2021/10/30 00:33:00;;;;;;;12.50;8.70;;;;;;;;;;5126256;28;20459;-80
2021/10/30 00:35:26;;;;;;;13.93;8.53;;;;;;;;;;5126509;28;20401;-80
2021/10/30 00:37:52;;;;;;;13.20;9.57;;;3.90;99.90;;;;;;5126625;28;20394;-80
2021/10/30 00:40:18;;;;;;;15.27;9.23;;;;;;;;;;5125915;28;20477;-80
2021/10/30 00:42:44;;;;;;;13.13;8.57;;;;;;;;;;5126983;28;20195;-81
2021/10/30 00:45:10;;;;;;;12.40;8.80;;;3.90;99.90;;;;;;5126239;28;20413;-80
2021/10/30 00:47:36;;;;;;;13.23;9.00;;;3.90;99.90;;;;;;5128433;28;20475;-80
2021/10/30 00:50:04;;;;;;;11.37;8.53;;;4.00;99.90;;;;;;5129970;28;20380;-80
2021/10/30 00:52:30;;;;;;;13.03;8.30;;;4.30;99.90;;;;;;5130675;28;20205;-81
2021/10/30 00:54:59;;;;;;;13.13;8.67;;;4.10;99.90;;;;;;5126659;28;20437;-81
2021/10/30 00:57:26;;;;;;;12.03;8.70;;;4.10;99.90;;;;;;5127034;28;20633;-80
2021/10/30 00:59:52;;;;;;;11.40;7.70;;;;;;;;;;5125330;28;20404;-80
2021/10/30 01:02:18;;;;;;;11.47;7.97;;;;;;;;;;5125167;28;20425;-81
2021/10/30 01:04:45;;;;;;;10.30;7.17;;;4.20;99.90;;;;;;5124210;28;21060;-80
2021/10/30 01:07:11;;;;;;;10.23;6.23;;;;;;;;;;5125863;28;20431;-81
2021/10/30 01:09:37;;;;;;;8.47;6.23;;;;;;;;;;5126006;28;20974;-80
2021/10/30 01:12:03;;;;;;;10.67;6.23;;;;;;;;;;5124162;28;20559;-81
2021/10/30 01:14:31;;;;;;;11.33;6.63;;;4.00;99.90;;;;;;5125069;28;20406;-81
2021/10/30 01:17:02;;;;;;;8.23;6.57;;;4.20;99.90;;;;;;5124169;28;20446;-80
2021/10/30 01:19:29;;;;;;;8.20;6.07;;;4.20;99.90;;;;;;5123149;28;20412;-80
2021/10/30 01:21:55;;;;;;;6.93;5.57;;;4.30;99.90;;;;;;5124483;28;20544;-81
2021/10/30 01:24:21;;;;;;;10.87;6.43;;;4.10;99.90;;;;;;5123515;28;20461;-81
2021/10/30 01:26:48;;;;;;;7.73;5.23;;;4.00;99.90;;;;;;5124089;28;20202;-81
2021/10/30 01:29:14;;;;;;;11.03;6.60;;;4.00;99.90;;;;;;5123748;28;20448;-80
2021/10/30 01:31:40;;;;;;;8.77;6.43;;;;;;;;;;5125115;28;20536;-80
2021/10/30 01:34:07;;;;;;;7.73;5.97;;;3.90;99.90;;;;;;5125149;28;20428;-81
2021/10/30 01:36:35;;;;;;;6.57;5.70;;;4.00;99.90;;;;;;5124533;28;20470;-80
2021/10/30 01:39:06;;;;;;;9.73;6.37;;;4.00;99.90;;;;;;5125914;28;20408;-80
2021/10/30 01:41:32;;;;;;;9.30;6.63;;;;;;;;;;5125376;28;20799;-81
2021/10/30 01:43:58;;;;;;;9.10;6.20;;;;;;;;;;5125817;28;20417;-81
2021/10/30 01:46:25;;;;;;;10.07;5.90;;;4.00;99.90;;;;;;5124479;28;20413;-81
2021/10/30 01:48:52;;;;;;;8.33;5.70;;;4.00;99.90;;;;;;5127943;28;20401;-81
2021/10/30 01:51:20;;;;;;;8.27;5.53;;;4.00;99.90;;;;;;5126643;28;20826;-81
2021/10/30 01:53:47;;;;;;;10.30;5.53;;;4.00;99.90;;;;;;5128734;28;20416;-81
2021/10/30 01:56:14;;;;;;;7.60;5.30;;;4.10;99.90;;;;;;5129560;28;20414;-81
2021/10/30 01:58:40;;;;;;;8.83;5.77;;;4.00;99.90;;;;;;5134016;28;20401;-81
2021/10/30 02:01:07;;;;;;;7.60;5.27;;;4.00;99.90;;;;;;5136937;28;20441;-80
2021/10/30 02:03:34;;;;;;;7.60;4.87;;;;;;;;;;5137515;28;20410;-81
2021/10/30 02:06:02;;;;;;;6.73;4.67;;;4.00;99.90;;;;;;5131320;28;20441;-81
2021/10/30 02:08:29;;;;;;;6.83;5.37;;;4.00;99.90;;;;;;5124850;28;20424;-81
2021/10/30 02:10:56;;;;;;;8.00;5.97;;;4.20;99.90;;;;;;5124373;28;21021;-81
2021/10/30 02:13:22;;;;;;;8.80;5.93;;;4.20;99.90;;;;;;5124567;28;20413;-81
2021/10/30 02:15:49;;;;;;;7.23;5.43;;;4.20;99.90;;;;;;5123868;28;20473;-81
2021/10/30 02:18:14;;;;;;;7.03;5.57;;;4.10;99.90;;;;;;5125681;28;20516;-81
2021/10/30 02:20:41;;;;;;;7.47;5.67;;;4.20;99.90;;;;;;5125290;28;20915;-82
2021/10/30 02:23:06;;;;;;;9.00;5.40;;;4.20;99.90;;;;;;5125189;28;20179;-81
2021/10/30 02:25:32;;;;;;;9.33;6.30;;;4.20;99.90;;;;;;5125296;28;20425;-81
2021/10/30 02:27:58;;;;;;;7.50;5.13;;;4.20;99.90;;;;;;5125952;28;20171;-81
2021/10/30 02:30:25;;;;;;;8.83;6.10;;;4.10;99.90;;;;;;5125187;28;20271;-81
2021/10/30 02:32:51;;;;;;;7.20;6.07;;;4.10;99.90;;;;;;5125523;28;20211;-81
2021/10/30 02:35:17;;;;;;;8.70;6.00;;;4.00;99.90;;;;;;5126653;28;20172;-81
2021/10/30 02:37:43;;;;;;;10.77;6.53;;;4.00;99.90;;;;;;5125822;28;20413;-81
2021/10/30 02:40:10;;;;;;;9.67;6.57;;;4.00;99.90;;;;;;5127267;28;20177;-81
2021/10/30 02:42:36;;;;;;;8.47;5.60;;;4.00;99.90;;;;;;5125388;28;20199;-81
2021/10/30 02:45:03;;;;;;;9.73;5.67;;;4.00;99.90;;;;;;5129370;28;20416;-81
2021/10/30 02:47:29;;;;;;;9.87;6.50;;;4.00;99.90;;;;;;5129483;28;20413;-81
2021/10/30 02:49:55;;;;;;;9.27;6.13;;;4.00;99.90;;;;;;5130992;28;20507;-81
2021/10/30 02:52:21;;;;;;;8.27;5.70;;;4.00;99.90;;;;;;5130955;28;20195;-81
2021/10/30 02:54:47;;;;;;;9.60;6.37;;;4.10;99.90;;;;;;5129020;28;20171;-81
2021/10/30 02:57:12;;;;;;;10.03;5.70;;;3.90;99.90;;;;;;5129767;28;20179;-81
2021/10/30 02:59:38;;;;;;;9.03;5.97;;;3.90;99.90;;;;;;5130769;28;20181;-81
2021/10/30 03:02:04;;;;;;;8.80;6.23;;;3.80;99.90;;;;;;5130663;28;20550;-82
2021/10/30 03:04:30;;;;;;;7.80;5.87;;;3.90;99.90;;;;;;5129940;28;20653;-81
2021/10/30 03:06:56;;;;;;;9.30;6.53;;;;;;;;;;5133939;28;20172;-80
2021/10/30 03:09:21;;;;;;;14.93;9.50;;;3.90;99.90;;;;;;5133892;28;20250;-82
2021/10/30 03:11:47;;;;;;;15.33;10.07;;;;;;;;;;5130245;28;20298;-81
2021/10/30 03:14:13;;;;;;;10.37;6.70;;;3.80;99.90;;;;;;5132244;28;20175;-81
2021/10/30 03:16:40;;;;;;;10.43;6.00;;;;;;;;;;5132282;28;20200;-83
2021/10/30 03:19:06;;;;;;;21.27;10.63;;;;;;;;;;5128962;28;20175;-81
2021/10/30 03:21:33;;;;;;;12.37;7.67;;;;;;;;;;5129447;28;20462;-81
2021/10/30 03:23:59;;;;;;;11.80;7.27;;;;;;;;;;5127817;28;20420;-81
2021/10/30 03:26:25;;;;;;;18.17;10.77;;;;;;;;;;5129147;28;20401;-81
2021/10/30 03:28:51;;;;;;;9.23;6.13;;;;;;;;;;5127365;28;20462;-81
2021/10/30 03:31:17;;;;;;;26.23;13.87;;;;;;;;;;5127130;28;20500;-81
2021/10/30 03:33:42;;;;;;;43.93;22.97;;;3.90;99.90;;;;;;5127043;28;20482;-81
2021/10/30 03:36:08;;;;;;;67.83;34.80;;;;;;;;;;5127510;28;20182;-81
2021/10/30 03:38:35;;;;;;;21.90;14.77;;;;;;;;;;5127383;28;20175;-81
2021/10/30 03:41:01;;;;;;;13.87;9.77;;;;;;;;;;5127357;28;20441;-82
2021/10/30 03:43:28;;;;;;;7.43;5.87;;;;;;;;;;5127820;28;20432;-81
2021/10/30 03:45:54;;;;;;;7.23;5.60;;;;;;;;;;5127585;28;20466;-81
2021/10/30 03:48:20;;;;;;;5.20;4.20;;;;;;;;;;5129163;28;20406;-82
2021/10/30 03:50:47;;;;;;;6.27;5.50;;;3.40;99.90;;;;;;5128211;28;20468;-81
2021/10/30 03:53:14;;;;;;;6.67;4.83;;;;;;;;;;5128090;28;20418;-81
2021/10/30 03:55:40;;;;;;;5.90;4.30;;;;;;;;;;5127447;28;20498;-82
2021/10/30 03:58:06;;;;;;;6.53;3.90;;;3.40;99.90;;;;;;5128146;28;20931;-81
2021/10/30 04:00:32;;;;;;;6.33;3.97;;;;;;;;;;5128700;28;20179;-81
2021/10/30 04:02:58;;;;;;;6.10;4.30;;;;;;;;;;5127817;28;20429;-82
2021/10/30 04:05:24;;;;;;;9.40;4.10;;;;;;;;;;5136960;28;20393;-81
2021/10/30 04:07:50;;;;;;;6.80;4.37;;;;;;;;;;5139087;28;20417;-81
2021/10/30 04:10:17;;;;;;;10.17;4.30;;;;;;;;;;5139194;28;20477;-81
2021/10/30 04:12:43;;;;;;;8.00;4.07;;;3.50;99.90;;;;;;5132200;28;20420;-82
2021/10/30 04:15:10;;;;;;;7.43;4.20;;;3.50;99.90;;;;;;5127006;28;20414;-81
2021/10/30 04:17:36;;;;;;;6.97;3.40;;;;;;;;;;5127330;28;20172;-81
2021/10/30 04:20:02;;;;;;;4.87;3.87;;;3.30;99.90;;;;;;5125316;28;20405;-81
2021/10/30 04:22:28;;;;;;;3.43;3.13;;;;;;;;;;5128073;28;20232;-81
2021/10/30 04:24:54;;;;;;;3.77;3.23;;;3.30;99.90;;;;;;5127803;28;20400;-82
2021/10/30 04:27:20;;;;;;;4.03;3.47;;;3.20;99.90;;;;;;5128089;28;20685;-82
2021/10/30 04:29:46;;;;;;;5.00;3.27;;;;;;;;;;5128315;28;20231;-81
2021/10/30 04:32:14;;;;;;;5.67;3.30;;;3.20;99.90;;;;;;5127004;28;20292;-81
2021/10/30 04:34:48;;;;;;;3.90;2.97;;;3.20;99.90;;;;;;5125056;28;20172;-81
2021/10/30 04:37:17;;;;;;;4.97;3.40;;;3.20;99.90;;;;;;5126585;28;20234;-81
2021/10/30 04:39:49;;;;;;;7.37;3.43;;;3.10;99.90;;;;;;5127541;28;20251;-81
2021/10/30 04:42:16;;;;;;;9.50;3.50;;;3.20;99.90;;;;;;5128457;28;20192;-81
2021/10/30 04:44:43;;;;;;;3.67;2.97;;;3.20;99.90;;;;;;5126074;28;20207;-81
2021/10/30 04:47:09;;;;;;;4.47;3.27;;;3.20;99.90;;;;;;5128860;28;20172;-82
2021/10/30 04:49:35;;;;;;;4.87;3.23;;;3.20;99.90;;;;;;5126957;28;20187;-82
2021/10/30 04:52:01;;;;;;;4.33;3.30;;;3.20;99.90;;;;;;5127222;28;20277;-81
2021/10/30 04:54:27;;;;;;;5.17;3.10;;;3.10;99.90;;;;;;5126420;28;20224;-81
2021/10/30 04:56:53;;;;;;;4.43;3.27;;;3.20;99.90;;;;;;5127532;28;20290;-81
2021/10/30 04:59:18;;;;;;;4.90;3.27;;;3.10;99.90;;;;;;5127460;28;20175;-81
2021/10/30 05:01:44;;;;;;;6.37;3.47;;;3.10;99.90;;;;;;5127595;28;20201;-81
2021/10/30 05:04:09;;;;;;;8.10;3.80;;;3.10;99.90;;;;;;5126474;28;20187;-81
2021/10/30 05:06:35;;;;;;;4.40;3.47;;;3.10;99.90;;;;;;5127275;28;20179;-81
2021/10/30 05:09:01;;;;;;;5.70;2.73;;;3.10;99.90;;;;;;5126626;28;20197;-82
2021/10/30 05:11:26;;;;;;;7.47;3.20;;;3.10;99.90;;;;;;5128122;28;20282;-81
2021/10/30 05:13:52;;;;;;;7.30;3.27;;;3.20;99.90;;;;;;5127704;28;20180;-81
2021/10/30 05:16:18;;;;;;;8.70;3.23;;;3.20;99.90;;;;;;5125739;28;20179;-81
2021/10/30 05:18:43;;;;;;;3.70;2.87;;;3.20;99.90;;;;;;5127862;28;20192;-81
2021/10/30 05:21:09;;;;;;;6.70;3.43;;;3.20;99.90;;;;;;5127578;28;20204;-81
2021/10/30 05:23:38;;;;;;;4.90;3.47;;;3.00;99.90;;;;;;5127000;28;20179;-81
2021/10/30 05:26:05;;;;;;;5.60;3.03;;;3.20;99.90;;;;;;5126427;28;20203;-82
2021/10/30 05:28:31;;;;;;;6.73;3.50;;;3.10;99.90;;;;;;5126755;28;20634;-82
2021/10/30 05:30:56;;;;;;;4.90;3.50;;;3.10;99.90;;;;;;5126808;28;20245;-82
2021/10/30 05:33:22;;;;;;;4.93;2.87;;;3.00;99.90;;;;;;5127659;28;20192;-81
2021/10/30 05:35:48;;;;;;;5.00;3.23;;;3.00;99.90;;;;;;5129824;28;20546;-81
2021/10/30 05:38:16;;;;;;;5.00;3.70;;;3.10;99.90;;;;;;5129519;28;20169;-81
2021/10/30 05:40:42;;;;;;;7.90;4.03;;;2.90;99.90;;;;;;5127221;28;20503;-82
2021/10/30 05:43:09;;;;;;;8.43;3.97;;;2.90;99.90;;;;;;5126306;28;20177;-81
2021/10/30 05:45:34;;;;;;;6.53;3.80;;;2.90;99.90;;;;;;5127493;28;20231;-81
2021/10/30 05:48:03;;;;;;;6.23;3.87;;;2.90;99.90;;;;;;5125980;28;20176;-81
2021/10/30 05:50:29;;;;;;;4.60;3.63;;;2.90;99.90;;;;;;5125203;28;20200;-81
2021/10/30 05:52:55;;;;;;;4.57;3.00;;;3.70;99.90;;;;;;5125420;28;20228;-81
2021/10/30 05:55:20;;;;;;;5.03;2.77;;;3.40;99.90;;;;;;5125211;28;20182;-81
2021/10/30 05:57:46;;;;;;;4.40;3.33;;;3.10;99.90;;;;;;5125001;28;20208;-82
2021/10/30 06:00:12;;;;;;;5.23;3.63;;;3.10;99.90;;;;;;5128035;28;20260;-81
2021/10/30 06:02:37;;;;;;;7.03;2.80;;;3.20;99.90;;;;;;5127049;28;20203;-81
2021/10/30 06:05:03;;;;;;;3.90;2.50;;;3.20;99.90;;;;;;5127176;28;20176;-82
2021/10/30 06:07:29;;;;;;;3.10;2.30;;;3.20;99.90;;;;;;5127446;28;20160;-82
2021/10/30 06:09:55;;;;;;;5.00;2.30;;;3.20;99.90;;;;;;5129129;28;20189;-81
2021/10/30 06:12:20;;;;;;;4.17;2.70;;;3.20;99.90;;;;;;5136603;28;20208;-81
2021/10/30 06:14:46;;;;;;;5.13;2.83;;;3.40;99.90;;;;;;5136122;28;20176;-81
2021/10/30 06:17:11;;;;;;;5.20;3.67;;;3.30;99.90;;;;;;5135808;28;20252;-81
2021/10/30 06:19:37;;;;;;;5.27;3.63;;;3.40;99.90;;;;;;5124167;28;20541;-81
2021/10/30 06:22:03;;;;;;;5.90;3.27;;;3.40;99.90;;;;;;5122841;28;20209;-81
2021/10/30 06:24:29;;;;;;;4.30;2.97;;;3.30;99.90;;;;;;5124095;28;20637;-81
2021/10/30 06:26:55;;;;;;;3.40;2.57;;;3.40;99.90;;;;;;5122511;28;20177;-81
2021/10/30 06:29:20;;;;;;;3.97;2.60;;;3.40;99.90;;;;;;5121186;28;20637;-82
2021/10/30 06:31:46;;;;;;;7.33;4.80;;;3.50;99.90;;;;;;5120971;28;20213;-80
2021/10/30 06:34:12;;;;;;;12.70;5.70;;;3.50;99.90;;;;;;5135906;28;20187;-80
2021/10/30 06:36:38;;;;;;;7.10;3.00;;;3.50;99.90;;;;;;5124436;28;20204;-81
2021/10/30 06:39:04;;;;;;;2.47;2.00;;;3.60;99.90;;;;;;5120486;28;20226;-81
2021/10/30 06:41:29;;;;;;;2.83;2.20;;;3.60;99.90;;;;;;5119344;28;20224;-81
2021/10/30 06:43:55;;;;;;;5.07;2.57;;;3.60;99.90;;;;;;5119622;28;20173;-80
2021/10/30 06:46:21;;;;;;;4.13;2.70;;;3.60;99.90;;;;;;5119049;28;20682;-81
2021/10/30 06:48:49;;;;;;;3.83;2.50;;;3.60;99.90;;;;;;5119504;28;20356;-81
2021/10/30 06:51:15;;;;;;;2.77;2.23;;;3.60;99.90;;;;;;5119622;28;20617;-82
2021/10/30 06:53:42;;;;;;;3.30;2.20;;;3.60;99.90;;;;;;5118577;28;20236;-81
2021/10/30 06:56:08;;;;;;;3.20;2.30;;;3.70;99.90;;;;;;5120466;28;20260;-81
2021/10/30 06:58:34;;;;;;;4.20;3.00;;;3.80;99.90;;;;;;5117897;28;20172;-81
2021/10/30 07:00:59;;;;;;;4.60;3.00;;;3.90;99.90;;;;;;5119631;28;20199;-81
2021/10/30 07:03:25;;;;;;;3.23;2.73;;;4.00;99.90;;;;;;5123027;28;20170;-80
2021/10/30 07:05:51;;;;;;;4.90;2.23;;;4.10;99.90;;;;;;5122018;28;20209;-81
2021/10/30 07:08:17;;;;;;;3.97;2.70;;;4.20;99.90;;;;;;5123017;28;20184;-81
2021/10/30 07:10:43;;;;;;;5.37;3.63;;;4.30;99.90;;;;;;5124593;28;20711;-81
2021/10/30 07:13:09;;;;;;;4.87;3.80;;;4.40;99.90;;;;;;5126132;28;20165;-80
2021/10/30 07:15:35;;;;;;;6.40;3.80;;;4.50;99.90;;;;;;5127296;28;20652;-80
2021/10/30 07:18:00;;;;;;;8.33;3.83;;;4.60;99.90;;;;;;5131451;28;20209;-80
2021/10/30 07:20:26;;;;;;;5.87;3.53;;;4.70;99.90;;;;;;5125645;28;20175;-80
2021/10/30 07:22:52;;;;;;;7.27;3.30;;;4.80;99.90;;;;;;5126907;28;20281;-80
2021/10/30 07:25:21;;;;;;;5.33;3.43;;;5.00;99.90;;;;;;5132189;28;20172;-79
2021/10/30 07:27:47;;;;;;;8.70;3.20;;;5.10;99.90;;;;;;5133014;28;20405;-80
2021/10/30 07:30:13;;;;;;;7.77;3.27;;;5.20;99.90;;;;;;5136864;28;20397;-80
2021/10/30 07:32:40;;;;;;;8.07;3.00;;;5.30;99.90;;;;;;5135155;28;20279;-79
2021/10/30 07:35:06;;;;;;;7.30;2.80;;;5.50;99.90;;;;;;5133451;28;20405;-79
2021/10/30 07:37:33;;;;;;;4.33;2.50;;;5.70;99.90;;;;;;5126564;28;20405;-80
2021/10/30 07:39:58;;;;;;;4.40;2.50;;;5.90;99.90;;;;;;5125915;28;20164;-80
2021/10/30 07:42:25;;;;;;;2.73;2.00;;;6.20;99.90;;;;;;5125737;28;20203;-80
2021/10/30 07:44:52;;;;;;;3.40;2.60;;;6.50;99.90;;;;;;5126396;28;20179;-80
2021/10/30 07:47:18;;;;;;;3.20;2.50;;;6.70;99.90;;;;;;5126762;28;20458;-80
2021/10/30 07:49:43;;;;;;;3.10;2.37;;;6.90;99.90;;;;;;5129012;28;20177;-80
2021/10/30 07:52:10;;;;;;;3.60;2.40;;;7.30;99.90;;;;;;5126775;28;20234;-80
2021/10/30 07:54:36;;;;;;;3.83;2.40;;;7.80;99.90;;;;;;5128129;28;20172;-81
2021/10/30 07:57:03;;;;;;;3.40;2.23;;;8.60;99.90;;;;;;5128188;28;20179;-80
2021/10/30 07:59:31;;;;;;;5.17;1.90;;;9.50;99.90;;;;;;5129879;28;20702;-81
2021/10/30 08:02:00;;;;;;;2.30;2.03;;;10.30;99.90;;;;;;5130407;28;20219;-80
2021/10/30 08:04:29;;;;;;;2.30;1.70;;;10.60;99.90;;;;;;5133295;28;20182;-80
2021/10/30 08:06:55;;;;;;;2.03;1.60;;;11.20;99.90;;;;;;5125281;28;20202;-80
2021/10/30 08:09:21;;;;;;;1.93;1.60;;;11.70;99.90;;;;;;5126896;28;20179;-81
2021/10/30 08:11:46;;;;;;;2.90;1.57;;;12.10;99.90;;;;;;5124073;28;20219;-82
2021/10/30 08:14:12;;;;;;;10.77;5.63;;;12.30;99.90;;;;;;5124964;28;20175;-82
2021/10/30 08:16:38;;;;;;;33.60;17.60;;;12.50;99.90;;;;;;5136650;28;20168;-80
2021/10/30 08:19:04;;;;;;;18.70;9.77;;;12.40;99.90;;;;;;5129244;28;20296;-80
2021/10/30 08:21:30;;;;;;;28.80;17.63;;;12.20;99.90;;;;;;5136268;28;20206;-80
2021/10/30 08:23:57;;;;;;;34.60;26.40;;;12.10;99.90;;;;;;5136777;28;20179;-80
2021/10/30 08:26:23;;;;;;;20.90;14.53;;;12.30;99.90;;;;;;5128788;28;20189;-81
2021/10/30 08:28:49;;;;;;;8.53;4.97;;;12.50;99.90;;;;;;5124098;28;20171;-82
2021/10/30 08:31:15;;;;;;;7.00;4.30;;;13.20;99.90;;;;;;5123266;28;20207;-81
2021/10/30 08:33:41;;;;;;;6.17;4.47;;;13.60;99.10;;;;;;5124011;28;20187;-81
2021/10/30 08:36:07;;;;;;;6.63;3.70;;;13.90;96.20;;;;;;5122226;28;20511;-81
2021/10/30 08:38:34;;;;;;;4.40;2.60;;;14.30;96.30;;;;;;5122960;28;20178;-81
2021/10/30 08:41:01;;;;;;;9.73;2.27;;;14.90;95.90;;;;;;5122571;28;20202;-80
2021/10/30 08:43:27;;;;;;;3.87;2.00;;;15.40;95.70;;;;;;5124854;28;20185;-79
2021/10/30 08:45:55;;;;;;;3.67;1.77;;;15.60;92.00;;;;;;5122293;28;20209;-78
2021/10/30 08:48:29;;;;;;;3.30;1.80;;;15.90;91.70;;;;;;5119249;28;20598;-78
2021/10/30 08:50:55;;;;;;;6.10;2.03;;;16.50;95.00;;;;;;5120776;28;20210;-79
2021/10/30 08:53:22;;;;;;;4.40;2.20;;;16.70;90.70;;;;;;5119949;28;20176;-78
2021/10/30 08:55:48;;;;;;;4.10;2.30;;;17.00;90.30;;;;;;5121694;28;20596;-78
2021/10/30 08:58:16;;;;;;;3.00;1.90;;;17.40;90.20;;;;;;5118795;28;20547;-78
2021/10/30 09:00:51;;;;;;;3.33;3.03;;;17.60;90.80;;;;;;5118326;28;20176;-79
2021/10/30 09:03:21;;;;;;;4.43;3.20;;;17.30;96.80;;;;;;5119880;28;20258;-79
2021/10/30 09:05:50;;;;;;;4.50;3.67;;;16.90;97.90;;;;;;5120132;28;20613;-78
2021/10/30 09:08:17;;;;;;;5.70;4.03;;;16.90;99.00;;;;;;5121258;28;20235;-79
2021/10/30 09:10:44;;;;;;;5.67;3.57;;;17.00;99.90;;;;;;5116245;28;20214;-80
2021/10/30 09:13:11;;;;;;;8.00;3.63;;;17.10;99.90;;;;;;5118834;28;20176;-81
2021/10/30 09:15:45;;;;;;;4.47;4.07;;;17.00;99.90;;;;;;5119129;28;20693;-82
2021/10/30 09:18:32;;;;;;;3.83;2.90;;;17.10;99.90;;;;;;5117794;28;20179;-77
2021/10/30 09:21:18;;;;;;;7.07;4.03;;;17.10;99.90;;;;;;5119975;28;20273;-78
2021/10/30 09:23:50;;;;;;;6.57;4.17;;;17.30;99.90;;;;;;5120976;28;20177;-78
2021/10/30 09:26:30;;;;;;;5.20;3.37;;;17.60;99.90;;;;;;5123342;28;20177;-79
2021/10/30 09:29:01;;;;;;;3.60;3.07;;;17.00;99.50;;;;;;5123859;28;20156;-79
2021/10/30 09:31:28;;;;;;;3.80;3.43;;;16.10;99.90;;;;;;5122431;28;20704;-79
2021/10/30 09:33:59;;;;;;;4.93;3.17;;;15.70;99.90;;;;;;5123602;28;20554;-79
2021/10/30 09:36:33;;;;;;;4.27;3.30;;;15.60;99.90;;;;;;5119393;28;20510;-77
2021/10/30 09:39:05;;;;;;;4.03;3.53;;;15.60;99.90;;;;;;5114227;28;20220;-77
2021/10/30 09:41:35;;;;;;;5.67;3.67;;;15.50;99.90;;;;;;5117920;28;20190;-78
2021/10/30 09:44:04;;;;;;;5.17;3.40;;;15.70;99.90;;;;;;5113667;28;20185;-77
2021/10/30 09:46:32;;;;;;;4.37;3.30;;;15.30;99.90;;;;;;5119028;28;20178;-79
2021/10/30 09:49:09;;;;;;;5.60;3.63;;;15.10;99.90;;;;;;5115240;28;20208;-78
2021/10/30 09:51:36;;;;;;;5.10;4.07;;;14.90;99.90;;;;;;5116968;28;20206;-78
2021/10/30 09:54:06;;;;;;;7.27;4.17;;;14.60;99.90;;;;;;5114845;28;20235;-77
2021/10/30 09:56:49;;;;;;;4.20;3.57;;;14.40;99.90;;;;;;5116572;28;20554;-78
2021/10/30 09:59:18;;;;;;;4.87;3.97;;;14.20;99.90;;;;;;5119198;28;20576;-79
2021/10/30 10:01:49;;;;;;;6.17;4.60;;;14.20;99.90;;;;;;5121277;28;20606;-81
2021/10/30 10:04:17;;;;;;;6.73;4.00;;;14.00;99.90;;;;;;5122934;28;20180;-78
2021/10/30 10:06:44;;;;;;;6.47;4.50;;;13.80;99.90;;;;;;5122986;28;20261;-77
2021/10/30 10:09:14;;;;;;;5.47;3.80;;;13.70;99.90;;;;;;5118543;28;20181;-80
2021/10/30 10:11:42;;;;;;;7.27;4.60;;;13.40;99.90;;;;;;5136000;28;20209;-80
2021/10/30 10:14:13;;;;;;;4.27;3.60;;;13.30;99.90;;;;;;5132516;28;20168;-80
2021/10/30 10:16:39;;;;;;;6.73;4.57;;;12.90;99.90;;;;;;5124599;28;20238;-80
2021/10/30 10:19:05;;;;;;;7.20;4.53;;;12.90;99.90;;;;;;5124428;28;20168;-81
2021/10/30 10:21:34;;;;;;;5.33;3.90;;;12.80;99.90;;;;;;5123401;28;20206;-81
2021/10/30 10:24:01;;;;;;;5.67;4.10;;;12.70;99.90;;;;;;5119464;28;20183;-81
2021/10/30 10:26:48;;;;;;;7.03;4.67;;;12.60;99.90;;;;;;5119539;28;20544;-80
2021/10/30 10:29:26;;;;;;;4.83;4.33;;;12.40;99.90;;;;;;5117860;28;20180;-77
2021/10/30 10:31:51;;;;;;;6.10;4.60;;;12.50;99.90;;;;;;5116700;28;20204;-80
2021/10/30 10:34:24;;;;;;;7.57;4.40;;;12.80;99.90;;;;;;5138084;28;20324;-79
2021/10/30 10:37:12;;;;;;;6.80;5.00;;;13.00;99.90;;;;;;5142514;28;20167;-79
2021/10/30 10:39:54;;;;;;;5.07;4.60;;;12.90;99.90;;;;;;5142482;27;20194;-79
2021/10/30 10:42:35;;;;;;;6.07;4.70;;;12.80;99.90;;;;;;5141367;28;20278;-80
2021/10/30 10:45:02;;;;;;;6.93;4.33;;;12.40;99.90;;;;;;5141410;27;20208;-80
2021/10/30 10:47:38;;;;;;;12.43;4.70;;;12.40;99.90;;;;;;5141761;28;20694;-80
2021/10/30 10:50:27;;;;;;;4.53;4.10;;;12.30;99.90;;;;;;5141904;27;20178;-80
2021/10/30 10:55:33;;;;;;;6.40;4.53;;;12.10;99.90;;;;;;5137965;28;20167;-76
2021/10/30 10:58:04;;;;;;;4.37;3.97;;;11.90;99.90;;;;;;5142577;28;20680;-80
2021/10/30 11:00:31;;;;;;;5.20;3.93;;;11.80;99.90;;;;;;5140699;27;20542;-78
2021/10/30 11:02:59;;;;;;;9.77;4.47;;;11.60;99.90;;;;;;5140798;27;20202;-80
2021/10/30 11:05:29;;;;;;;4.67;3.97;;;11.60;99.90;;;;;;5144171;27;20180;-80
2021/10/30 11:07:54;;;;;;;4.90;4.40;;;11.60;99.90;;;;;;5146879;27;20167;-79
2021/10/30 11:10:23;;;;;;;5.73;3.50;;;11.50;99.90;;;;;;5145592;27;20171;-80
2021/10/30 11:13:06;;;;;;;7.57;3.90;;;11.40;99.90;;;;;;5145220;27;20216;-80
2021/10/30 11:15:44;;;;;;;4.43;3.90;;;11.00;99.90;;;;;;5143744;27;20580;-80
2021/10/30 11:18:32;;;;;;;4.50;4.10;;;10.90;99.90;;;;;;5145065;27;20181;-80
2021/10/30 11:21:20;;;;;;;5.87;5.13;;;10.80;99.90;;;;;;5147025;27;20194;-80
2021/10/30 11:23:47;;;;;;;10.53;4.17;;;10.60;99.90;;;;;;5146598;27;20155;-80
2021/10/30 11:26:26;;;;;;;4.70;4.17;;;10.50;99.90;;;;;;5146238;27;20266;-80
2021/10/30 11:28:52;;;;;;;5.20;4.53;;;10.40;99.90;;;;;;5145793;27;20178;-80
2021/10/30 11:31:20;;;;;;;5.77;4.20;;;10.30;99.90;;;;;;5147370;27;20210;-81
2021/10/30 11:33:56;;;;;;;5.57;4.10;;;10.40;99.90;;;;;;5147439;27;20186;-81
2021/10/30 11:36:22;;;;;;;5.27;4.33;;;10.40;99.90;;;;;;5146490;27;20179;-83
2021/10/30 11:38:52;;;;;;;9.77;4.90;;;10.50;99.90;;;;;;5146739;27;20644;-81
2021/10/30 11:41:30;;;;;;;6.07;4.50;;;10.70;99.90;;;;;;5147448;27;20278;-81
2021/10/30 11:43:59;;;;;;;7.43;4.40;;;11.10;99.90;;;;;;5148354;27;20152;-80
2021/10/30 11:46:25;;;;;;;4.73;3.90;;;11.90;99.90;;;;;;5144463;27;20265;-80
2021/10/30 11:48:56;;;;;;;4.00;3.60;;;12.50;99.90;;;;;;5145738;27;20224;-81
2021/10/30 11:51:31;;;;;;;5.50;4.67;;;13.30;99.90;;;;;;5145695;27;20200;-81
2021/10/30 11:53:58;;;;;;;5.40;4.47;;;13.40;99.90;;;;;;5144655;27;20172;-80
2021/10/30 11:56:26;;;;;;;4.17;3.50;;;13.30;99.90;;;;;;5146235;27;20534;-81
2021/10/30 11:58:55;;;;;;;6.10;4.60;;;13.10;99.90;;;;;;5144368;27;20176;-81
2021/10/30 12:01:29;;;;;;;9.20;5.77;;;12.90;99.90;;;;;;5143589;27;20206;-81
2021/10/30 12:04:05;;;;;;;7.73;5.00;;;12.50;99.90;;;;;;5145474;27;20174;-81
2021/10/30 12:06:34;;;;;;;8.30;4.93;;;12.20;99.90;;;;;;5144608;27;20195;-81
2021/10/30 12:09:02;;;;;;;8.67;5.77;;;11.90;99.90;;;;;;5144172;27;20653;-81
2021/10/30 12:11:34;;;;;;;5.53;3.97;;;11.90;99.90;;;;;;5145494;27;20243;-81
2021/10/30 12:14:00;;;;;;;7.90;4.07;;;11.80;99.90;;;;;;5144153;27;20163;-81
2021/10/30 12:16:27;;;;;;;6.03;3.80;;;11.60;99.90;;;;;;5143964;27;20177;-81
2021/10/30 12:19:00;;;;;;;14.13;4.83;;;11.40;99.90;;;;;;5158181;27;20163;-80
2021/10/30 12:21:34;;;;;;;10.23;7.10;;;11.40;99.90;;;;;;5157143;27;20199;-80
2021/10/30 12:24:02;;;;;;;6.23;4.77;;;11.30;99.90;;;;;;5150958;27;20182;-81
2021/10/30 12:26:29;;;;;;;4.70;4.10;;;11.30;99.90;;;;;;5144918;27;20200;-81
2021/10/30 12:29:14;;;;;;;6.00;5.07;;;11.30;99.90;;;;;;5143467;27;20185;-81
2021/10/30 12:31:41;;;;;;;6.77;4.67;;;11.20;99.90;;;;;;5141580;27;20211;-80
2021/10/30 12:34:14;;;;;;;8.00;4.90;;;11.10;99.90;;;;;;5143084;27;20210;-80
2021/10/30 12:36:40;;;;;;;8.70;4.90;;;10.90;99.90;;;;;;5143011;27;20175;-80
2021/10/30 12:39:21;;;;;;;6.83;5.30;;;10.80;99.90;;;;;;5146281;27;20224;-80
2021/10/30 12:41:58;;;;;;;7.83;4.70;;;10.70;99.90;;;;;;5150021;27;20222;-81
2021/10/30 12:44:26;;;;;;;11.30;5.73;;;10.60;99.90;;;;;;5148371;27;20175;-81
2021/10/30 12:46:56;;;;;;;8.17;5.67;;;10.50;99.90;;;;;;5145980;27;20185;-81
2021/10/30 12:49:24;;;;;;;6.67;5.17;;;10.50;99.90;;;;;;5143279;27;20182;-81
2021/10/30 12:52:11;;;;;;;10.97;5.37;;;10.40;99.90;;;;;;5144734;27;20206;-81
2021/10/30 12:54:40;;;;;;;6.33;5.40;;;10.50;99.90;;;;;;5142764;27;20194;-81
2021/10/30 12:57:25;;;;;;;8.20;5.70;;;10.60;99.90;;;;;;5143687;27;20167;-81
2021/10/30 13:00:05;;;;;;;7.67;5.37;;;10.60;99.90;;;;;;5146035;27;20183;-81
2021/10/30 13:02:31;;;;;;;8.17;5.50;;;10.60;99.90;;;;;;5142885;27;20569;-80
2021/10/30 13:04:58;;;;;;;7.70;5.50;;;10.60;99.90;;;;;;5141448;27;20632;-81
2021/10/30 13:07:24;;;;;;;7.60;5.30;;;10.60;99.90;;;;;;5141979;27;20211;-80
2021/10/30 13:10:00;;;;;;;8.20;5.70;;;10.60;99.90;;;;;;5143528;27;20171;-80
2021/10/30 13:12:26;;;;;;;9.63;5.53;;;10.60;99.90;;;;;;5143271;27;20208;-81